sensor_id;sensor_type;location;lat;lon;timestamp;P1;durP1;ratioP1;P2;durP2;ratioP2
20478;SDS011;10398;52.490;13.434;2024-02-26T00:01:01;13.13;;;5.93;;
20478;SDS011;10398;52.490;13.434;2024-02-26T00:03:27;15.23;;;5.47;;
20478;SDS011;10398;52.490;13.434;2024-02-26T00:05:53;32.60;;;10.67;;
20478;SDS011;10398;52.490;13.434;2024-02-26T00:08:18;21.67;;;8.40;;
20478;SDS011;10398;52.490;13.434;2024-02-26T00:10:44;21.63;;;7.10;;
20478;SDS011;10398;52.490;13.434;2024-02-26T00:13:10;11.63;;;5.30;;
20478;SDS011;10398;52.490;13.434;2024-02-26T00:15:35;10.77;;;5.07;;
20478;SDS011;10398;52.490;13.434;2024-02-26T00:18:01;10.57;;;5.50;;
20478;SDS011;10398;52.490;13.434;2024-02-26T00:20:27;12.77;;;5.50;;
20478;SDS011;10398;52.490;13.434;2024-02-26T00:22:52;9.87;;;4.53;;
20478;SDS011;10398;52.490;13.434;2024-02-26T00:25:18;13.40;;;4.87;;
20478;SDS011;10398;52.490;13.434;2024-02-26T00:27:44;9.93;;;4.80;;
20478;SDS011;10398;52.490;13.434;2024-02-26T00:30:09;8.57;;;4.43;;
20478;SDS011;10398;52.490;13.434;2024-02-26T00:32:36;13.30;;;5.43;;
20478;SDS011;10398;52.490;13.434;2024-02-26T00:35:01;13.10;;;4.93;;
20478;SDS011;10398;52.490;13.434;2024-02-26T00:37:27;10.43;;;5.07;;
20478;SDS011;10398;52.490;13.434;2024-02-26T00:39:52;11.77;;;5.20;;
20478;SDS011;10398;52.490;13.434;2024-02-26T00:42:19;11.47;;;4.37;;
20478;SDS011;10398;52.490;13.434;2024-02-26T00:44:44;12.20;;;5.10;;
20478;SDS011;10398;52.490;13.434;2024-02-26T00:47:10;15.20;;;5.40;;
20478;SDS011;10398;52.490;13.434;2024-02-26T00:49:36;15.03;;;4.63;;
20478;SDS011;10398;52.490;13.434;2024-02-26T00:52:02;10.00;;;4.83;;
20478;SDS011;10398;52.490;13.434;2024-02-26T00:54:28;12.33;;;4.53;;
20478;SDS011;10398;52.490;13.434;2024-02-26T00:56:54;12.10;;;4.50;;
20478;SDS011;10398;52.490;13.434;2024-02-26T00:59:19;9.30;;;4.00;;
20478;SDS011;10398;52.490;13.434;2024-02-26T01:01:45;11.63;;;4.73;;
20478;SDS011;10398;52.490;13.434;2024-02-26T01:04:11;7.83;;;4.23;;
20478;SDS011;10398;52.490;13.434;2024-02-26T01:06:37;10.30;;;3.57;;
20478;SDS011;10398;52.490;13.434;2024-02-26T01:09:03;9.53;;;4.43;;
20478;SDS011;10398;52.490;13.434;2024-02-26T01:11:28;8.27;;;3.57;;
20478;SDS011;10398;52.490;13.434;2024-02-26T01:13:54;5.53;;;3.27;;
20478;SDS011;10398;52.490;13.434;2024-02-26T01:16:22;6.50;;;3.33;;
20478;SDS011;10398;52.490;13.434;2024-02-26T01:18:48;9.47;;;3.40;;
20478;SDS011;10398;52.490;13.434;2024-02-26T01:21:14;8.20;;;3.57;;
20478;SDS011;10398;52.490;13.434;2024-02-26T01:23:39;8.67;;;3.30;;
20478;SDS011;10398;52.490;13.434;2024-02-26T01:26:05;4.43;;;2.93;;
20478;SDS011;10398;52.490;13.434;2024-02-26T01:28:31;6.10;;;3.40;;
20478;SDS011;10398;52.490;13.434;2024-02-26T01:30:56;8.57;;;3.70;;
20478;SDS011;10398;52.490;13.434;2024-02-26T01:33:24;4.53;;;2.97;;
20478;SDS011;10398;52.490;13.434;2024-02-26T01:35:51;6.00;;;3.20;;
20478;SDS011;10398;52.490;13.434;2024-02-26T01:38:18;7.23;;;3.33;;
20478;SDS011;10398;52.490;13.434;2024-02-26T01:40:43;8.37;;;3.37;;
20478;SDS011;10398;52.490;13.434;2024-02-26T01:43:09;11.00;;;3.77;;
20478;SDS011;10398;52.490;13.434;2024-02-26T01:45:35;7.60;;;3.33;;
20478;SDS011;10398;52.490;13.434;2024-02-26T01:48:00;6.53;;;3.13;;
20478;SDS011;10398;52.490;13.434;2024-02-26T01:50:26;6.63;;;2.83;;
20478;SDS011;10398;52.490;13.434;2024-02-26T01:52:52;6.13;;;3.33;;
20478;SDS011;10398;52.490;13.434;2024-02-26T01:55:20;5.20;;;3.40;;
20478;SDS011;10398;52.490;13.434;2024-02-26T01:57:48;8.23;;;3.30;;
20478;SDS011;10398;52.490;13.434;2024-02-26T02:00:16;9.90;;;3.97;;
20478;SDS011;10398;52.490;13.434;2024-02-26T02:02:43;6.27;;;2.97;;
20478;SDS011;10398;52.490;13.434;2024-02-26T02:05:11;5.80;;;3.23;;
20478;SDS011;10398;52.490;13.434;2024-02-26T02:07:39;6.77;;;2.80;;
20478;SDS011;10398;52.490;13.434;2024-02-26T02:10:06;6.93;;;3.00;;
20478;SDS011;10398;52.490;13.434;2024-02-26T02:12:32;7.30;;;3.10;;
20478;SDS011;10398;52.490;13.434;2024-02-26T02:14:59;5.77;;;2.37;;
20478;SDS011;10398;52.490;13.434;2024-02-26T02:17:25;3.50;;;2.07;;
20478;SDS011;10398;52.490;13.434;2024-02-26T02:19:52;5.90;;;2.97;;
20478;SDS011;10398;52.490;13.434;2024-02-26T02:22:18;6.67;;;3.00;;
20478;SDS011;10398;52.490;13.434;2024-02-26T02:24:44;6.70;;;2.93;;
20478;SDS011;10398;52.490;13.434;2024-02-26T02:27:13;7.47;;;3.57;;
20478;SDS011;10398;52.490;13.434;2024-02-26T02:29:39;5.77;;;3.00;;
20478;SDS011;10398;52.490;13.434;2024-02-26T02:32:04;8.07;;;2.70;;
20478;SDS011;10398;52.490;13.434;2024-02-26T02:34:31;4.10;;;2.50;;
20478;SDS011;10398;52.490;13.434;2024-02-26T02:36:57;5.43;;;2.53;;
20478;SDS011;10398;52.490;13.434;2024-02-26T02:39:23;5.87;;;2.47;;
20478;SDS011;10398;52.490;13.434;2024-02-26T02:41:48;4.03;;;2.27;;
20478;SDS011;10398;52.490;13.434;2024-02-26T02:44:14;4.40;;;2.40;;
20478;SDS011;10398;52.490;13.434;2024-02-26T02:46:40;4.10;;;2.17;;
20478;SDS011;10398;52.490;13.434;2024-02-26T02:49:11;6.97;;;2.63;;
20478;SDS011;10398;52.490;13.434;2024-02-26T02:51:37;5.40;;;2.77;;
20478;SDS011;10398;52.490;13.434;2024-02-26T02:54:03;2.93;;;2.20;;
20478;SDS011;10398;52.490;13.434;2024-02-26T02:56:29;3.70;;;2.43;;
20478;SDS011;10398;52.490;13.434;2024-02-26T02:58:54;6.13;;;2.40;;
20478;SDS011;10398;52.490;13.434;2024-02-26T03:01:20;4.00;;;2.40;;
20478;SDS011;10398;52.490;13.434;2024-02-26T03:03:45;10.57;;;3.10;;
20478;SDS011;10398;52.490;13.434;2024-02-26T03:06:11;6.90;;;2.27;;
20478;SDS011;10398;52.490;13.434;2024-02-26T03:08:37;5.40;;;2.43;;
20478;SDS011;10398;52.490;13.434;2024-02-26T03:11:04;4.97;;;2.33;;
20478;SDS011;10398;52.490;13.434;2024-02-26T03:13:30;6.03;;;2.07;;
20478;SDS011;10398;52.490;13.434;2024-02-26T03:15:55;5.73;;;2.70;;
20478;SDS011;10398;52.490;13.434;2024-02-26T03:18:22;5.33;;;2.40;;
20478;SDS011;10398;52.490;13.434;2024-02-26T03:20:48;2.73;;;1.70;;
20478;SDS011;10398;52.490;13.434;2024-02-26T03:23:14;3.30;;;1.87;;
20478;SDS011;10398;52.490;13.434;2024-02-26T03:25:44;3.07;;;1.83;;
20478;SDS011;10398;52.490;13.434;2024-02-26T03:28:13;3.30;;;1.63;;
20478;SDS011;10398;52.490;13.434;2024-02-26T03:30:39;3.40;;;2.20;;
20478;SDS011;10398;52.490;13.434;2024-02-26T03:33:04;4.10;;;1.90;;
20478;SDS011;10398;52.490;13.434;2024-02-26T03:35:30;5.67;;;2.00;;
20478;SDS011;10398;52.490;13.434;2024-02-26T03:37:55;6.17;;;2.00;;
20478;SDS011;10398;52.490;13.434;2024-02-26T03:40:21;3.27;;;1.93;;
20478;SDS011;10398;52.490;13.434;2024-02-26T03:42:47;3.43;;;2.00;;
20478;SDS011;10398;52.490;13.434;2024-02-26T03:45:12;4.53;;;1.90;;
20478;SDS011;10398;52.490;13.434;2024-02-26T03:47:38;4.70;;;1.93;;
20478;SDS011;10398;52.490;13.434;2024-02-26T03:50:06;7.20;;;3.63;;
20478;SDS011;10398;52.490;13.434;2024-02-26T03:52:33;9.00;;;3.60;;
20478;SDS011;10398;52.490;13.434;2024-02-26T03:54:59;14.30;;;4.00;;
20478;SDS011;10398;52.490;13.434;2024-02-26T03:57:25;5.00;;;2.53;;
20478;SDS011;10398;52.490;13.434;2024-02-26T03:59:50;5.53;;;2.50;;
20478;SDS011;10398;52.490;13.434;2024-02-26T04:02:16;8.20;;;2.80;;
20478;SDS011;10398;52.490;13.434;2024-02-26T04:04:44;7.57;;;2.57;;
20478;SDS011;10398;52.490;13.434;2024-02-26T04:07:10;10.43;;;4.10;;
20478;SDS011;10398;52.490;13.434;2024-02-26T04:09:37;16.17;;;4.90;;
20478;SDS011;10398;52.490;13.434;2024-02-26T04:12:02;5.37;;;2.10;;
20478;SDS011;10398;52.490;13.434;2024-02-26T04:14:28;3.67;;;2.13;;
20478;SDS011;10398;52.490;13.434;2024-02-26T04:16:54;4.27;;;2.37;;
20478;SDS011;10398;52.490;13.434;2024-02-26T04:19:20;4.93;;;2.10;;
20478;SDS011;10398;52.490;13.434;2024-02-26T04:21:45;4.63;;;2.03;;
20478;SDS011;10398;52.490;13.434;2024-02-26T04:24:11;2.00;;;1.50;;
20478;SDS011;10398;52.490;13.434;2024-02-26T04:26:37;4.97;;;2.03;;
20478;SDS011;10398;52.490;13.434;2024-02-26T04:29:02;4.97;;;1.60;;
20478;SDS011;10398;52.490;13.434;2024-02-26T04:31:28;3.83;;;1.83;;
20478;SDS011;10398;52.490;13.434;2024-02-26T04:33:54;6.77;;;2.50;;
20478;SDS011;10398;52.490;13.434;2024-02-26T04:36:19;7.23;;;2.33;;
20478;SDS011;10398;52.490;13.434;2024-02-26T04:38:45;5.60;;;2.33;;
20478;SDS011;10398;52.490;13.434;2024-02-26T04:41:11;4.63;;;2.77;;
20478;SDS011;10398;52.490;13.434;2024-02-26T04:43:37;13.93;;;4.77;;
20478;SDS011;10398;52.490;13.434;2024-02-26T04:46:06;9.07;;;3.63;;
20478;SDS011;10398;52.490;13.434;2024-02-26T04:48:33;3.90;;;2.43;;
20478;SDS011;10398;52.490;13.434;2024-02-26T04:50:59;6.33;;;2.77;;
20478;SDS011;10398;52.490;13.434;2024-02-26T04:53:25;3.23;;;1.70;;
20478;SDS011;10398;52.490;13.434;2024-02-26T04:55:51;4.20;;;2.37;;
20478;SDS011;10398;52.490;13.434;2024-02-26T04:58:16;6.03;;;2.23;;
20478;SDS011;10398;52.490;13.434;2024-02-26T05:00:42;5.07;;;2.70;;
20478;SDS011;10398;52.490;13.434;2024-02-26T05:03:08;3.53;;;2.40;;
20478;SDS011;10398;52.490;13.434;2024-02-26T05:05:38;4.47;;;2.23;;
20478;SDS011;10398;52.490;13.434;2024-02-26T05:08:04;6.10;;;2.70;;
20478;SDS011;10398;52.490;13.434;2024-02-26T05:10:29;4.83;;;2.47;;
20478;SDS011;10398;52.490;13.434;2024-02-26T05:12:55;7.07;;;2.43;;
20478;SDS011;10398;52.490;13.434;2024-02-26T05:15:21;5.20;;;2.70;;
20478;SDS011;10398;52.490;13.434;2024-02-26T05:17:46;7.10;;;2.70;;
20478;SDS011;10398;52.490;13.434;2024-02-26T05:20:12;5.47;;;2.57;;
20478;SDS011;10398;52.490;13.434;2024-02-26T05:22:38;4.57;;;2.30;;
20478;SDS011;10398;52.490;13.434;2024-02-26T05:25:03;5.57;;;3.13;;
20478;SDS011;10398;52.490;13.434;2024-02-26T05:27:29;5.30;;;2.87;;
20478;SDS011;10398;52.490;13.434;2024-02-26T05:29:55;7.83;;;3.00;;
20478;SDS011;10398;52.490;13.434;2024-02-26T05:32:21;5.20;;;2.40;;
20478;SDS011;10398;52.490;13.434;2024-02-26T05:34:47;6.53;;;3.20;;
20478;SDS011;10398;52.490;13.434;2024-02-26T05:37:12;8.07;;;3.43;;
20478;SDS011;10398;52.490;13.434;2024-02-26T05:39:38;8.27;;;3.00;;
20478;SDS011;10398;52.490;13.434;2024-02-26T05:42:04;11.03;;;4.80;;
20478;SDS011;10398;52.490;13.434;2024-02-26T05:44:30;31.10;;;4.67;;
20478;SDS011;10398;52.490;13.434;2024-02-26T05:46:56;10.40;;;4.27;;
20478;SDS011;10398;52.490;13.434;2024-02-26T05:49:22;11.70;;;4.10;;
20478;SDS011;10398;52.490;13.434;2024-02-26T05:51:48;12.47;;;4.00;;
20478;SDS011;10398;52.490;13.434;2024-02-26T05:54:13;11.27;;;4.10;;
20478;SDS011;10398;52.490;13.434;2024-02-26T05:56:39;8.20;;;3.73;;
20478;SDS011;10398;52.490;13.434;2024-02-26T05:59:05;11.33;;;4.20;;
20478;SDS011;10398;52.490;13.434;2024-02-26T06:01:31;24.40;;;4.30;;
20478;SDS011;10398;52.490;13.434;2024-02-26T06:03:58;9.73;;;3.93;;
20478;SDS011;10398;52.490;13.434;2024-02-26T06:06:23;18.00;;;4.23;;
20478;SDS011;10398;52.490;13.434;2024-02-26T06:08:49;7.43;;;3.33;;
20478;SDS011;10398;52.490;13.434;2024-02-26T06:11:15;7.40;;;3.37;;
20478;SDS011;10398;52.490;13.434;2024-02-26T06:13:40;6.90;;;3.60;;
20478;SDS011;10398;52.490;13.434;2024-02-26T06:16:07;8.60;;;4.10;;
20478;SDS011;10398;52.490;13.434;2024-02-26T06:18:33;7.20;;;3.40;;
20478;SDS011;10398;52.490;13.434;2024-02-26T06:20:59;7.83;;;4.00;;
20478;SDS011;10398;52.490;13.434;2024-02-26T06:23:25;10.37;;;4.00;;
20478;SDS011;10398;52.490;13.434;2024-02-26T06:25:51;15.17;;;4.63;;
20478;SDS011;10398;52.490;13.434;2024-02-26T06:28:17;8.70;;;3.70;;
20478;SDS011;10398;52.490;13.434;2024-02-26T06:30:43;9.40;;;4.37;;
20478;SDS011;10398;52.490;13.434;2024-02-26T06:33:08;16.00;;;5.60;;
20478;SDS011;10398;52.490;13.434;2024-02-26T06:35:34;12.07;;;4.70;;
20478;SDS011;10398;52.490;13.434;2024-02-26T06:37:59;9.40;;;4.00;;
20478;SDS011;10398;52.490;13.434;2024-02-26T06:40:25;11.90;;;4.67;;
20478;SDS011;10398;52.490;13.434;2024-02-26T06:42:51;10.37;;;4.67;;
20478;SDS011;10398;52.490;13.434;2024-02-26T06:45:17;18.53;;;4.90;;
20478;SDS011;10398;52.490;13.434;2024-02-26T06:47:44;12.60;;;4.53;;
20478;SDS011;10398;52.490;13.434;2024-02-26T06:50:13;9.93;;;4.30;;
20478;SDS011;10398;52.490;13.434;2024-02-26T06:52:39;22.60;;;4.90;;
20478;SDS011;10398;52.490;13.434;2024-02-26T06:55:05;7.93;;;3.73;;
20478;SDS011;10398;52.490;13.434;2024-02-26T06:57:33;20.60;;;4.53;;
20478;SDS011;10398;52.490;13.434;2024-02-26T06:59:59;10.07;;;4.00;;
20478;SDS011;10398;52.490;13.434;2024-02-26T07:02:24;15.30;;;4.27;;
20478;SDS011;10398;52.490;13.434;2024-02-26T07:04:50;10.00;;;4.53;;
20478;SDS011;10398;52.490;13.434;2024-02-26T07:07:16;10.83;;;4.97;;
20478;SDS011;10398;52.490;13.434;2024-02-26T07:09:43;8.97;;;4.43;;
20478;SDS011;10398;52.490;13.434;2024-02-26T07:12:09;12.93;;;4.67;;
20478;SDS011;10398;52.490;13.434;2024-02-26T07:14:35;11.37;;;4.90;;
20478;SDS011;10398;52.490;13.434;2024-02-26T07:17:02;11.07;;;4.27;;
20478;SDS011;10398;52.490;13.434;2024-02-26T07:19:28;10.07;;;4.87;;
20478;SDS011;10398;52.490;13.434;2024-02-26T07:21:54;14.33;;;4.70;;
20478;SDS011;10398;52.490;13.434;2024-02-26T07:24:20;10.20;;;4.93;;
20478;SDS011;10398;52.490;13.434;2024-02-26T07:26:46;13.00;;;4.90;;
20478;SDS011;10398;52.490;13.434;2024-02-26T07:29:12;14.57;;;5.80;;
20478;SDS011;10398;52.490;13.434;2024-02-26T07:31:37;10.87;;;5.03;;
20478;SDS011;10398;52.490;13.434;2024-02-26T07:34:03;10.43;;;5.20;;
20478;SDS011;10398;52.490;13.434;2024-02-26T07:36:28;12.60;;;5.30;;
20478;SDS011;10398;52.490;13.434;2024-02-26T07:38:54;12.60;;;5.13;;
20478;SDS011;10398;52.490;13.434;2024-02-26T07:41:20;13.27;;;5.37;;
20478;SDS011;10398;52.490;13.434;2024-02-26T07:43:46;12.03;;;5.00;;
20478;SDS011;10398;52.490;13.434;2024-02-26T07:46:11;9.47;;;4.73;;
20478;SDS011;10398;52.490;13.434;2024-02-26T07:48:37;11.83;;;4.50;;
20478;SDS011;10398;52.490;13.434;2024-02-26T07:51:03;14.03;;;4.23;;
20478;SDS011;10398;52.490;13.434;2024-02-26T07:53:29;11.40;;;4.73;;
20478;SDS011;10398;52.490;13.434;2024-02-26T07:55:55;25.73;;;5.97;;
20478;SDS011;10398;52.490;13.434;2024-02-26T07:58:21;16.27;;;5.10;;
20478;SDS011;10398;52.490;13.434;2024-02-26T08:00:48;9.40;;;4.97;;
20478;SDS011;10398;52.490;13.434;2024-02-26T08:03:14;12.97;;;5.53;;
20478;SDS011;10398;52.490;13.434;2024-02-26T08:05:41;16.73;;;5.30;;
20478;SDS011;10398;52.490;13.434;2024-02-26T08:08:08;13.70;;;6.10;;
20478;SDS011;10398;52.490;13.434;2024-02-26T08:10:34;10.37;;;6.00;;
20478;SDS011;10398;52.490;13.434;2024-02-26T08:12:59;11.73;;;5.33;;
20478;SDS011;10398;52.490;13.434;2024-02-26T08:15:33;15.27;;;5.63;;
20478;SDS011;10398;52.490;13.434;2024-02-26T08:17:59;12.17;;;5.27;;
20478;SDS011;10398;52.490;13.434;2024-02-26T08:20:28;10.90;;;5.00;;
20478;SDS011;10398;52.490;13.434;2024-02-26T08:22:57;11.87;;;5.40;;
20478;SDS011;10398;52.490;13.434;2024-02-26T08:25:23;11.17;;;4.97;;
20478;SDS011;10398;52.490;13.434;2024-02-26T08:27:49;10.70;;;4.77;;
20478;SDS011;10398;52.490;13.434;2024-02-26T08:30:16;11.87;;;5.30;;
20478;SDS011;10398;52.490;13.434;2024-02-26T08:32:42;10.37;;;5.37;;
20478;SDS011;10398;52.490;13.434;2024-02-26T08:35:09;14.87;;;6.70;;
20478;SDS011;10398;52.490;13.434;2024-02-26T08:37:35;10.57;;;5.53;;
20478;SDS011;10398;52.490;13.434;2024-02-26T08:40:00;13.10;;;6.23;;
20478;SDS011;10398;52.490;13.434;2024-02-26T08:42:26;10.63;;;5.83;;
20478;SDS011;10398;52.490;13.434;2024-02-26T08:44:51;16.57;;;6.40;;
20478;SDS011;10398;52.490;13.434;2024-02-26T08:47:19;14.67;;;6.70;;
20478;SDS011;10398;52.490;13.434;2024-02-26T08:49:45;15.87;;;6.40;;
20478;SDS011;10398;52.490;13.434;2024-02-26T08:52:10;15.87;;;6.93;;
20478;SDS011;10398;52.490;13.434;2024-02-26T08:54:36;11.10;;;5.47;;
20478;SDS011;10398;52.490;13.434;2024-02-26T08:57:02;15.93;;;5.63;;
20478;SDS011;10398;52.490;13.434;2024-02-26T08:59:28;15.00;;;5.73;;
20478;SDS011;10398;52.490;13.434;2024-02-26T09:01:54;13.17;;;6.60;;
20478;SDS011;10398;52.490;13.434;2024-02-26T09:04:20;13.17;;;5.77;;
20478;SDS011;10398;52.490;13.434;2024-02-26T09:06:45;12.57;;;5.70;;
20478;SDS011;10398;52.490;13.434;2024-02-26T09:09:11;14.87;;;5.70;;
20478;SDS011;10398;52.490;13.434;2024-02-26T09:11:37;22.27;;;6.93;;
20478;SDS011;10398;52.490;13.434;2024-02-26T09:14:03;14.47;;;6.50;;
20478;SDS011;10398;52.490;13.434;2024-02-26T09:16:29;14.97;;;6.23;;
20478;SDS011;10398;52.490;13.434;2024-02-26T09:18:55;20.77;;;6.20;;
20478;SDS011;10398;52.490;13.434;2024-02-26T09:21:21;13.87;;;6.50;;
20478;SDS011;10398;52.490;13.434;2024-02-26T09:23:49;15.23;;;6.50;;
20478;SDS011;10398;52.490;13.434;2024-02-26T09:26:15;15.03;;;6.93;;
20478;SDS011;10398;52.490;13.434;2024-02-26T09:28:41;14.47;;;6.23;;
20478;SDS011;10398;52.490;13.434;2024-02-26T09:31:07;13.50;;;6.50;;
20478;SDS011;10398;52.490;13.434;2024-02-26T09:33:33;14.33;;;6.57;;
20478;SDS011;10398;52.490;13.434;2024-02-26T09:35:58;14.60;;;6.07;;
20478;SDS011;10398;52.490;13.434;2024-02-26T09:38:25;16.77;;;6.23;;
20478;SDS011;10398;52.490;13.434;2024-02-26T09:40:55;16.17;;;6.63;;
20478;SDS011;10398;52.490;13.434;2024-02-26T09:43:22;15.00;;;6.90;;
20478;SDS011;10398;52.490;13.434;2024-02-26T09:45:53;13.67;;;6.47;;
20478;SDS011;10398;52.490;13.434;2024-02-26T09:48:19;15.50;;;6.47;;
20478;SDS011;10398;52.490;13.434;2024-02-26T09:50:46;14.73;;;5.87;;
20478;SDS011;10398;52.490;13.434;2024-02-26T09:53:12;15.90;;;6.57;;
20478;SDS011;10398;52.490;13.434;2024-02-26T09:55:39;15.17;;;6.20;;
20478;SDS011;10398;52.490;13.434;2024-02-26T09:58:05;18.47;;;6.53;;
20478;SDS011;10398;52.490;13.434;2024-02-26T10:00:32;17.03;;;6.70;;
20478;SDS011;10398;52.490;13.434;2024-02-26T10:03:03;11.43;;;6.00;;
20478;SDS011;10398;52.490;13.434;2024-02-26T10:05:30;14.80;;;5.70;;
20478;SDS011;10398;52.490;13.434;2024-02-26T10:07:58;15.37;;;6.27;;
20478;SDS011;10398;52.490;13.434;2024-02-26T10:10:27;18.13;;;5.60;;
20478;SDS011;10398;52.490;13.434;2024-02-26T10:12:54;15.60;;;6.87;;
20478;SDS011;10398;52.490;13.434;2024-02-26T10:15:20;12.77;;;6.00;;
20478;SDS011;10398;52.490;13.434;2024-02-26T10:17:46;15.80;;;6.27;;
20478;SDS011;10398;52.490;13.434;2024-02-26T10:20:15;14.97;;;5.70;;
20478;SDS011;10398;52.490;13.434;2024-02-26T10:22:43;12.43;;;5.60;;
20478;SDS011;10398;52.490;13.434;2024-02-26T10:25:09;18.20;;;5.23;;
20478;SDS011;10398;52.490;13.434;2024-02-26T10:27:35;15.50;;;5.67;;
20478;SDS011;10398;52.490;13.434;2024-02-26T10:30:04;10.83;;;5.17;;
20478;SDS011;10398;52.490;13.434;2024-02-26T10:32:41;14.13;;;5.90;;
20478;SDS011;10398;52.490;13.434;2024-02-26T10:35:08;14.17;;;5.40;;
20478;SDS011;10398;52.490;13.434;2024-02-26T10:37:34;11.23;;;5.77;;
20478;SDS011;10398;52.490;13.434;2024-02-26T10:39:59;11.13;;;5.90;;
20478;SDS011;10398;52.490;13.434;2024-02-26T10:42:26;13.20;;;6.33;;
20478;SDS011;10398;52.490;13.434;2024-02-26T10:44:51;12.27;;;5.70;;
20478;SDS011;10398;52.490;13.434;2024-02-26T10:47:17;13.37;;;5.67;;
20478;SDS011;10398;52.490;13.434;2024-02-26T10:49:46;12.40;;;5.37;;
20478;SDS011;10398;52.490;13.434;2024-02-26T10:52:15;13.85;;;5.78;;
20478;SDS011;10398;52.490;13.434;2024-02-26T10:54:43;9.30;;;4.83;;
20478;SDS011;10398;52.490;13.434;2024-02-26T10:57:12;10.27;;;5.38;;
20478;SDS011;10398;52.490;13.434;2024-02-26T10:59:39;13.93;;;5.25;;
20478;SDS011;10398;52.490;13.434;2024-02-26T11:02:07;12.88;;;5.70;;
20478;SDS011;10398;52.490;13.434;2024-02-26T11:04:35;9.83;;;5.07;;
20478;SDS011;10398;52.490;13.434;2024-02-26T11:07:02;13.70;;;5.27;;
20478;SDS011;10398;52.490;13.434;2024-02-26T11:09:29;12.95;;;5.22;;
20478;SDS011;10398;52.490;13.434;2024-02-26T11:11:56;14.47;;;5.03;;
20478;SDS011;10398;52.490;13.434;2024-02-26T11:14:22;12.23;;;5.30;;
20478;SDS011;10398;52.490;13.434;2024-02-26T11:16:51;15.82;;;5.78;;
20478;SDS011;10398;52.490;13.434;2024-02-26T11:19:16;11.50;;;5.47;;
20478;SDS011;10398;52.490;13.434;2024-02-26T11:21:44;10.18;;;4.90;;
20478;SDS011;10398;52.490;13.434;2024-02-26T11:24:11;9.07;;;4.47;;
20478;SDS011;10398;52.490;13.434;2024-02-26T11:26:54;8.43;;;4.50;;
20478;SDS011;10398;52.490;13.434;2024-02-26T11:29:26;7.93;;;4.30;;
20478;SDS011;10398;52.490;13.434;2024-02-26T11:31:56;8.93;;;4.80;;
20478;SDS011;10398;52.490;13.434;2024-02-26T11:34:25;9.03;;;4.50;;
20478;SDS011;10398;52.490;13.434;2024-02-26T11:36:50;8.53;;;4.53;;
20478;SDS011;10398;52.490;13.434;2024-02-26T11:39:16;11.83;;;5.20;;
20478;SDS011;10398;52.490;13.434;2024-02-26T11:41:42;9.90;;;5.20;;
20478;SDS011;10398;52.490;13.434;2024-02-26T11:44:08;11.13;;;4.73;;
20478;SDS011;10398;52.490;13.434;2024-02-26T11:46:40;9.73;;;4.43;;
20478;SDS011;10398;52.490;13.434;2024-02-26T11:51:52;7.77;;;4.07;;
20478;SDS011;10398;52.490;13.434;2024-02-26T11:57:24;8.73;;;4.47;;
20478;SDS011;10398;52.490;13.434;2024-02-26T11:59:50;9.73;;;4.53;;
20478;SDS011;10398;52.490;13.434;2024-02-26T12:05:23;11.63;;;4.57;;
20478;SDS011;10398;52.490;13.434;2024-02-26T12:07:53;9.67;;;4.67;;
20478;SDS011;10398;52.490;13.434;2024-02-26T12:10:27;9.77;;;4.27;;
20478;SDS011;10398;52.490;13.434;2024-02-26T12:15:39;11.83;;;4.20;;
20478;SDS011;10398;52.490;13.434;2024-02-26T12:18:09;11.13;;;4.07;;
20478;SDS011;10398;52.490;13.434;2024-02-26T12:20:43;11.40;;;4.40;;
20478;SDS011;10398;52.490;13.434;2024-02-26T12:23:09;9.47;;;5.30;;
20478;SDS011;10398;52.490;13.434;2024-02-26T12:25:40;13.37;;;4.93;;
20478;SDS011;10398;52.490;13.434;2024-02-26T12:28:06;12.13;;;5.37;;
20478;SDS011;10398;52.490;13.434;2024-02-26T12:30:32;11.73;;;4.67;;
20478;SDS011;10398;52.490;13.434;2024-02-26T12:32:58;7.60;;;3.63;;
20478;SDS011;10398;52.490;13.434;2024-02-26T12:35:25;14.10;;;4.50;;
20478;SDS011;10398;52.490;13.434;2024-02-26T12:37:55;9.63;;;3.87;;
20478;SDS011;10398;52.490;13.434;2024-02-26T12:40:21;10.90;;;4.13;;
20478;SDS011;10398;52.490;13.434;2024-02-26T12:42:47;10.23;;;4.73;;
20478;SDS011;10398;52.490;13.434;2024-02-26T12:45:13;8.67;;;4.73;;
20478;SDS011;10398;52.490;13.434;2024-02-26T12:47:44;10.07;;;5.20;;
20478;SDS011;10398;52.490;13.434;2024-02-26T12:50:16;11.17;;;5.70;;
20478;SDS011;10398;52.490;13.434;2024-02-26T12:52:45;10.17;;;4.77;;
20478;SDS011;10398;52.490;13.434;2024-02-26T12:55:13;9.10;;;4.43;;
20478;SDS011;10398;52.490;13.434;2024-02-26T12:57:41;8.47;;;4.27;;
20478;SDS011;10398;52.490;13.434;2024-02-26T13:00:08;16.40;;;5.13;;
20478;SDS011;10398;52.490;13.434;2024-02-26T13:02:41;11.77;;;5.17;;
20478;SDS011;10398;52.490;13.434;2024-02-26T13:05:09;10.73;;;4.80;;
20478;SDS011;10398;52.490;13.434;2024-02-26T13:07:40;10.07;;;5.07;;
20478;SDS011;10398;52.490;13.434;2024-02-26T13:10:07;12.13;;;5.53;;
20478;SDS011;10398;52.490;13.434;2024-02-26T13:12:33;10.30;;;5.03;;
20478;SDS011;10398;52.490;13.434;2024-02-26T13:15:02;14.57;;;5.10;;
20478;SDS011;10398;52.490;13.434;2024-02-26T13:17:31;10.90;;;4.97;;
20478;SDS011;10398;52.490;13.434;2024-02-26T13:19:57;9.43;;;4.40;;
20478;SDS011;10398;52.490;13.434;2024-02-26T13:22:23;8.57;;;4.13;;
20478;SDS011;10398;52.490;13.434;2024-02-26T13:24:58;7.97;;;4.33;;
20478;SDS011;10398;52.490;13.434;2024-02-26T13:27:25;13.07;;;4.50;;
20478;SDS011;10398;52.490;13.434;2024-02-26T13:30:04;8.10;;;3.80;;
20478;SDS011;10398;52.490;13.434;2024-02-26T13:32:37;8.47;;;3.70;;
20478;SDS011;10398;52.490;13.434;2024-02-26T13:35:11;8.57;;;4.23;;
20478;SDS011;10398;52.490;13.434;2024-02-26T13:37:37;12.77;;;4.47;;
20478;SDS011;10398;52.490;13.434;2024-02-26T13:40:07;6.33;;;3.50;;
20478;SDS011;10398;52.490;13.434;2024-02-26T13:42:37;8.43;;;3.47;;
20478;SDS011;10398;52.490;13.434;2024-02-26T13:45:03;14.23;;;3.43;;
20478;SDS011;10398;52.490;13.434;2024-02-26T13:47:33;10.27;;;4.20;;
20478;SDS011;10398;52.490;13.434;2024-02-26T13:49:59;7.73;;;2.97;;
20478;SDS011;10398;52.490;13.434;2024-02-26T13:52:26;6.70;;;3.67;;
20478;SDS011;10398;52.490;13.434;2024-02-26T13:54:51;8.53;;;3.23;;
20478;SDS011;10398;52.490;13.434;2024-02-26T13:57:18;9.77;;;3.87;;
20478;SDS011;10398;52.490;13.434;2024-02-26T13:59:44;8.63;;;3.23;;
20478;SDS011;10398;52.490;13.434;2024-02-26T14:02:10;9.97;;;3.40;;
20478;SDS011;10398;52.490;13.434;2024-02-26T14:04:36;7.53;;;3.40;;
20478;SDS011;10398;52.490;13.434;2024-02-26T14:07:02;8.40;;;3.37;;
20478;SDS011;10398;52.490;13.434;2024-02-26T14:09:29;9.40;;;3.83;;
20478;SDS011;10398;52.490;13.434;2024-02-26T14:11:54;10.20;;;3.57;;
20478;SDS011;10398;52.490;13.434;2024-02-26T14:14:20;7.30;;;3.53;;
20478;SDS011;10398;52.490;13.434;2024-02-26T14:16:46;6.87;;;3.47;;
20478;SDS011;10398;52.490;13.434;2024-02-26T14:19:11;5.97;;;3.07;;
20478;SDS011;10398;52.490;13.434;2024-02-26T14:21:37;7.80;;;3.13;;
20478;SDS011;10398;52.490;13.434;2024-02-26T14:24:03;7.97;;;3.20;;
20478;SDS011;10398;52.490;13.434;2024-02-26T14:26:29;7.20;;;2.97;;
20478;SDS011;10398;52.490;13.434;2024-02-26T14:28:55;8.80;;;3.67;;
20478;SDS011;10398;52.490;13.434;2024-02-26T14:31:21;12.63;;;3.33;;
20478;SDS011;10398;52.490;13.434;2024-02-26T14:33:46;12.63;;;3.90;;
20478;SDS011;10398;52.490;13.434;2024-02-26T14:36:13;14.93;;;4.13;;